Xiang Long — V3VA7 — position and weather

sailwx.info

Track history (hours):
 
Tides and Currents Weather Stations Pressure Air Temp Water Temp Dewpoint Dewpoint Depression Visibility Wind Speed Wind Dir Waves Ship Positions

Xiang Long

Last reported at 2017-Dec-11 17:00 UTC. Time now 2017-Dec-12 15:52 UTC.
Position N 33°47' E 131°32'.

Length 75 m; draft 4.9 m.

Type: Cargo ship. MMSI: 312031000.

Date/timePositionNaut miles runAvg speedWind from/ knotsBaromVisibWave heightAir tempDewpointWater temp
2017-Dec-11 17:00N 33°47' E 131°32'4 9.0
2017-Dec-11 16:30N 33°48' E 131°27'5 9.2
2017-Dec-11 16:00N 33°49' E 131°21'4 8.9
2017-Dec-11 15:30N 33°50' E 131°16'4 8.9
2017-Dec-11 15:00N 33°51' E 131°11'5 9.4
2017-Dec-11 14:30N 33°54' E 131°06'5 9.6
2017-Dec-11 14:00N 33°57' E 131°02'5 9.3
2017-Dec-11 13:31N 33°57' E 130°57'4 7.2
2017-Dec-11 13:01N 33°56' E 130°52'4 8.4
2017-Dec-11 12:31N 34°00' E 130°52'5 9.4
2017-Dec-11 12:00N 34°03' E 130°47'5 9.3
2017-Dec-11 11:30N 34°04' E 130°41'5 9.7
2017-Dec-11 11:00N 34°04' E 130°36'5 9.8
2017-Dec-11 10:30N 34°04' E 130°30'5 9.6
2017-Dec-11 10:01N 34°04' E 130°24'5 9.2
2017-Dec-11 09:30N 34°04' E 130°18'5 9.4
2017-Dec-11 09:01N 34°04' E 130°13'5 9.2
2017-Dec-11 08:30N 34°03' E 130°07'  
Track history (hours):
 
Tides and Currents Weather Stations Pressure Air Temp Water Temp Dewpoint Dewpoint Depression Visibility Wind Speed Wind Dir Waves Ship Positions

Xiang Long

Last reported at 2017-Dec-11 17:00 UTC. Time now 2017-Dec-12 15:52 UTC.
Position N 33°47' E 131°32'.

Length 75 m; draft 4.9 m.

Type: Cargo ship. MMSI: 312031000.

Date/timePositionNaut miles runAvg speedWind from/ knotsBaromVisibWave heightAir tempDewpointWater temp
2017-Dec-11 17:00N 33°47' E 131°32'4 9.0
2017-Dec-11 16:30N 33°48' E 131°27'5 9.2
2017-Dec-11 16:00N 33°49' E 131°21'4 8.9
2017-Dec-11 15:30N 33°50' E 131°16'4 8.9
2017-Dec-11 15:00N 33°51' E 131°11'5 9.4
2017-Dec-11 14:30N 33°54' E 131°06'5 9.6
2017-Dec-11 14:00N 33°57' E 131°02'5 9.3
2017-Dec-11 13:31N 33°57' E 130°57'4 7.2
2017-Dec-11 13:01N 33°56' E 130°52'4 8.4
2017-Dec-11 12:31N 34°00' E 130°52'5 9.4
2017-Dec-11 12:00N 34°03' E 130°47'5 9.3
2017-Dec-11 11:30N 34°04' E 130°41'5 9.7
2017-Dec-11 11:00N 34°04' E 130°36'5 9.8
2017-Dec-11 10:30N 34°04' E 130°30'5 9.6
2017-Dec-11 10:01N 34°04' E 130°24'5 9.2
2017-Dec-11 09:30N 34°04' E 130°18'5 9.4
2017-Dec-11 09:01N 34°04' E 130°13'5 9.2
2017-Dec-11 08:30N 34°03' E 130°07'  

Dump ship's entire track history